sensor_id;sensor_type;location;lat;lon;timestamp;temperature;humidity
8780;DHT22;62328;51.19929245;4.42130175;2023-03-25T00:02:22;10.40;99.90
8780;DHT22;62328;51.19929245;4.42130175;2023-03-25T00:04:49;10.40;99.90
8780;DHT22;62328;51.19929245;4.42130175;2023-03-25T00:07:17;10.40;99.90
8780;DHT22;62328;51.19929245;4.42130175;2023-03-25T00:09:44;10.40;99.90
8780;DHT22;62328;51.19929245;4.42130175;2023-03-25T00:12:12;10.40;99.90
8780;DHT22;62328;51.19929245;4.42130175;2023-03-25T00:14:39;10.40;99.90
8780;DHT22;62328;51.19929245;4.42130175;2023-03-25T00:17:08;10.30;99.90
8780;DHT22;62328;51.19929245;4.42130175;2023-03-25T00:19:35;10.40;99.90
8780;DHT22;62328;51.19929245;4.42130175;2023-03-25T00:22:01;10.30;99.90
8780;DHT22;62328;51.19929245;4.42130175;2023-03-25T00:24:28;10.20;99.90
8780;DHT22;62328;51.19929245;4.42130175;2023-03-25T00:26:55;10.10;99.90
8780;DHT22;62328;51.19929245;4.42130175;2023-03-25T00:29:22;10.10;99.90
8780;DHT22;62328;51.19929245;4.42130175;2023-03-25T00:31:49;10.10;99.90
8780;DHT22;62328;51.19929245;4.42130175;2023-03-25T00:34:17;10.00;99.90
8780;DHT22;62328;51.19929245;4.42130175;2023-03-25T00:36:44;10.00;99.90
8780;DHT22;62328;51.19929245;4.42130175;2023-03-25T00:39:11;9.90;99.90
8780;DHT22;62328;51.19929245;4.42130175;2023-03-25T00:41:38;10.00;99.90
8780;DHT22;62328;51.19929245;4.42130175;2023-03-25T00:44:08;10.00;99.90
8780;DHT22;62328;51.19929245;4.42130175;2023-03-25T00:46:36;9.90;99.90
8780;DHT22;62328;51.19929245;4.42130175;2023-03-25T00:49:03;9.90;99.90
8780;DHT22;62328;51.19929245;4.42130175;2023-03-25T00:51:31;10.00;99.90
8780;DHT22;62328;51.19929245;4.42130175;2023-03-25T00:53:59;9.90;99.90
8780;DHT22;62328;51.19929245;4.42130175;2023-03-25T00:56:26;10.00;99.90
8780;DHT22;62328;51.19929245;4.42130175;2023-03-25T00:58:54;10.10;99.90
8780;DHT22;62328;51.19929245;4.42130175;2023-03-25T01:01:24;10.00;99.90
8780;DHT22;62328;51.19929245;4.42130175;2023-03-25T01:03:52;10.10;99.90
8780;DHT22;62328;51.19929245;4.42130175;2023-03-25T01:06:24;10.00;99.90
8780;DHT22;62328;51.19929245;4.42130175;2023-03-25T01:08:55;10.10;99.90
8780;DHT22;62328;51.19929245;4.42130175;2023-03-25T01:11:24;10.00;99.90
8780;DHT22;62328;51.19929245;4.42130175;2023-03-25T01:13:52;10.00;99.90
8780;DHT22;62328;51.19929245;4.42130175;2023-03-25T01:16:20;9.90;99.90
8780;DHT22;62328;51.19929245;4.42130175;2023-03-25T01:18:46;10.00;99.90
8780;DHT22;62328;51.19929245;4.42130175;2023-03-25T01:21:14;10.00;99.90
8780;DHT22;62328;51.19929245;4.42130175;2023-03-25T01:23:40;10.00;99.90
8780;DHT22;62328;51.19929245;4.42130175;2023-03-25T01:26:09;9.90;99.90
8780;DHT22;62328;51.19929245;4.42130175;2023-03-25T01:28:37;9.90;99.90
8780;DHT22;62328;51.19929245;4.42130175;2023-03-25T01:31:06;9.90;99.90
8780;DHT22;62328;51.19929245;4.42130175;2023-03-25T01:33:33;9.80;99.90
8780;DHT22;62328;51.19929245;4.42130175;2023-03-25T01:36:01;9.80;99.90
8780;DHT22;62328;51.19929245;4.42130175;2023-03-25T01:38:28;9.80;99.90
8780;DHT22;62328;51.19929245;4.42130175;2023-03-25T01:40:56;9.80;99.90
8780;DHT22;62328;51.19929245;4.42130175;2023-03-25T01:43:24;9.70;99.90
8780;DHT22;62328;51.19929245;4.42130175;2023-03-25T01:45:51;9.70;99.90
8780;DHT22;62328;51.19929245;4.42130175;2023-03-25T01:48:20;9.70;99.90
8780;DHT22;62328;51.19929245;4.42130175;2023-03-25T01:50:52;9.70;99.90
8780;DHT22;62328;51.19929245;4.42130175;2023-03-25T01:53:19;9.80;99.90
8780;DHT22;62328;51.19929245;4.42130175;2023-03-25T01:55:47;9.70;99.90
8780;DHT22;62328;51.19929245;4.42130175;2023-03-25T01:58:16;9.70;99.90
8780;DHT22;62328;51.19929245;4.42130175;2023-03-25T02:00:46;9.80;99.90
8780;DHT22;62328;51.19929245;4.42130175;2023-03-25T02:03:15;9.80;99.90
8780;DHT22;62328;51.19929245;4.42130175;2023-03-25T02:05:47;9.70;99.90
8780;DHT22;62328;51.19929245;4.42130175;2023-03-25T02:08:17;9.60;99.90
8780;DHT22;62328;51.19929245;4.42130175;2023-03-25T02:10:46;9.60;99.90
8780;DHT22;62328;51.19929245;4.42130175;2023-03-25T02:13:13;9.70;99.90
8780;DHT22;62328;51.19929245;4.42130175;2023-03-25T02:15:54;9.70;99.90
8780;DHT22;62328;51.19929245;4.42130175;2023-03-25T02:18:31;9.60;99.90
8780;DHT22;62328;51.19929245;4.42130175;2023-03-25T02:21:35;9.60;99.90
8780;DHT22;62328;51.19929245;4.42130175;2023-03-25T02:24:48;9.60;99.90
8780;DHT22;62328;51.19929245;4.42130175;2023-03-25T02:27:25;9.60;99.90
8780;DHT22;62328;51.19929245;4.42130175;2023-03-25T02:33:16;9.50;99.90
8780;DHT22;62328;51.19929245;4.42130175;2023-03-25T02:36:04;9.60;99.90
8780;DHT22;62328;51.19929245;4.42130175;2023-03-25T02:38:38;9.50;99.90
8780;DHT22;62328;51.19929245;4.42130175;2023-03-25T02:41:12;9.60;99.90
8780;DHT22;62328;51.19929245;4.42130175;2023-03-25T02:43:45;9.60;99.90
8780;DHT22;62328;51.19929245;4.42130175;2023-03-25T02:46:17;9.60;99.90
8780;DHT22;62328;51.19929245;4.42130175;2023-03-25T02:48:51;9.70;99.90
8780;DHT22;62328;51.19929245;4.42130175;2023-03-25T02:51:22;9.70;99.90
8780;DHT22;62328;51.19929245;4.42130175;2023-03-25T02:53:53;9.70;99.90
8780;DHT22;62328;51.19929245;4.42130175;2023-03-25T02:56:23;9.60;99.90
8780;DHT22;62328;51.19929245;4.42130175;2023-03-25T02:58:52;9.70;99.90
8780;DHT22;62328;51.19929245;4.42130175;2023-03-25T03:01:21;9.60;99.90
8780;DHT22;62328;51.19929245;4.42130175;2023-03-25T03:03:51;9.60;99.90
8780;DHT22;62328;51.19929245;4.42130175;2023-03-25T03:06:19;9.60;99.90
8780;DHT22;62328;51.19929245;4.42130175;2023-03-25T03:09:21;9.60;99.90
8780;DHT22;62328;51.19929245;4.42130175;2023-03-25T03:11:56;9.50;99.90
8780;DHT22;62328;51.19929245;4.42130175;2023-03-25T03:14:46;9.40;99.90
8780;DHT22;62328;51.19929245;4.42130175;2023-03-25T03:17:20;9.30;99.90
8780;DHT22;62328;51.19929245;4.42130175;2023-03-25T03:19:52;9.30;99.90
8780;DHT22;62328;51.19929245;4.42130175;2023-03-25T03:22:31;9.30;99.90
8780;DHT22;62328;51.19929245;4.42130175;2023-03-25T03:25:05;9.30;99.90
8780;DHT22;62328;51.19929245;4.42130175;2023-03-25T03:27:39;9.30;99.90
8780;DHT22;62328;51.19929245;4.42130175;2023-03-25T03:30:12;9.20;99.90
8780;DHT22;62328;51.19929245;4.42130175;2023-03-25T03:32:46;9.20;99.90
8780;DHT22;62328;51.19929245;4.42130175;2023-03-25T03:35:18;9.30;99.90
8780;DHT22;62328;51.19929245;4.42130175;2023-03-25T03:37:50;9.20;99.90
8780;DHT22;62328;51.19929245;4.42130175;2023-03-25T03:40:21;9.20;99.90
8780;DHT22;62328;51.19929245;4.42130175;2023-03-25T03:42:51;9.20;99.90
8780;DHT22;62328;51.19929245;4.42130175;2023-03-25T03:45:22;9.30;99.90
8780;DHT22;62328;51.19929245;4.42130175;2023-03-25T03:47:53;9.30;99.90
8780;DHT22;62328;51.19929245;4.42130175;2023-03-25T03:50:24;9.40;99.90
8780;DHT22;62328;51.19929245;4.42130175;2023-03-25T03:52:58;9.30;99.90
8780;DHT22;62328;51.19929245;4.42130175;2023-03-25T03:55:31;9.30;99.90
8780;DHT22;62328;51.19929245;4.42130175;2023-03-25T03:58:06;9.40;99.90
8780;DHT22;62328;51.19929245;4.42130175;2023-03-25T04:00:39;9.30;99.90
8780;DHT22;62328;51.19929245;4.42130175;2023-03-25T04:03:12;9.30;99.90
8780;DHT22;62328;51.19929245;4.42130175;2023-03-25T04:05:44;9.30;99.90
8780;DHT22;62328;51.19929245;4.42130175;2023-03-25T04:08:19;9.30;99.90
8780;DHT22;62328;51.19929245;4.42130175;2023-03-25T04:10:53;9.30;99.90
8780;DHT22;62328;51.19929245;4.42130175;2023-03-25T04:13:25;9.20;99.90
8780;DHT22;62328;51.19929245;4.42130175;2023-03-25T04:15:56;9.20;99.90
8780;DHT22;62328;51.19929245;4.42130175;2023-03-25T04:18:24;9.20;99.90
8780;DHT22;62328;51.19929245;4.42130175;2023-03-25T04:20:53;9.30;99.90
8780;DHT22;62328;51.19929245;4.42130175;2023-03-25T04:23:20;9.30;99.90
8780;DHT22;62328;51.19929245;4.42130175;2023-03-25T04:25:48;9.40;99.90
8780;DHT22;62328;51.19929245;4.42130175;2023-03-25T04:28:17;9.40;99.90
8780;DHT22;62328;51.19929245;4.42130175;2023-03-25T04:30:44;9.40;99.90
8780;DHT22;62328;51.19929245;4.42130175;2023-03-25T04:33:11;9.40;99.90
8780;DHT22;62328;51.19929245;4.42130175;2023-03-25T04:35:39;9.40;99.90
8780;DHT22;62328;51.19929245;4.42130175;2023-03-25T04:38:06;9.40;99.90
8780;DHT22;62328;51.19929245;4.42130175;2023-03-25T04:40:33;9.40;99.90
8780;DHT22;62328;51.19929245;4.42130175;2023-03-25T04:43:01;9.40;99.90
8780;DHT22;62328;51.19929245;4.42130175;2023-03-25T04:45:28;9.40;99.90
8780;DHT22;62328;51.19929245;4.42130175;2023-03-25T04:47:55;9.30;99.90
8780;DHT22;62328;51.19929245;4.42130175;2023-03-25T04:50:23;9.40;99.90
8780;DHT22;62328;51.19929245;4.42130175;2023-03-25T04:52:52;9.30;99.90
8780;DHT22;62328;51.19929245;4.42130175;2023-03-25T04:55:19;9.40;99.90
8780;DHT22;62328;51.19929245;4.42130175;2023-03-25T04:57:47;9.40;99.90
8780;DHT22;62328;51.19929245;4.42130175;2023-03-25T05:00:17;9.40;99.90
8780;DHT22;62328;51.19929245;4.42130175;2023-03-25T05:02:46;9.50;99.90
8780;DHT22;62328;51.19929245;4.42130175;2023-03-25T05:05:13;9.50;99.90
8780;DHT22;62328;51.19929245;4.42130175;2023-03-25T05:07:43;9.50;99.90
8780;DHT22;62328;51.19929245;4.42130175;2023-03-25T05:10:11;9.50;99.90
8780;DHT22;62328;51.19929245;4.42130175;2023-03-25T05:12:38;9.50;99.90
8780;DHT22;62328;51.19929245;4.42130175;2023-03-25T05:15:06;9.50;99.90
8780;DHT22;62328;51.19929245;4.42130175;2023-03-25T05:17:34;9.50;99.90
8780;DHT22;62328;51.19929245;4.42130175;2023-03-25T05:20:01;9.50;99.90
8780;DHT22;62328;51.19929245;4.42130175;2023-03-25T05:22:30;9.50;99.90
8780;DHT22;62328;51.19929245;4.42130175;2023-03-25T05:24:57;9.50;99.90
8780;DHT22;62328;51.19929245;4.42130175;2023-03-25T05:27:27;9.50;99.90
8780;DHT22;62328;51.19929245;4.42130175;2023-03-25T05:29:55;9.50;99.90
8780;DHT22;62328;51.19929245;4.42130175;2023-03-25T05:32:23;9.50;99.90
8780;DHT22;62328;51.19929245;4.42130175;2023-03-25T05:34:51;9.50;99.90
8780;DHT22;62328;51.19929245;4.42130175;2023-03-25T05:37:18;9.50;99.90
8780;DHT22;62328;51.19929245;4.42130175;2023-03-25T05:39:45;9.50;99.90
8780;DHT22;62328;51.19929245;4.42130175;2023-03-25T05:42:12;9.40;99.90
8780;DHT22;62328;51.19929245;4.42130175;2023-03-25T05:44:39;9.40;99.90
8780;DHT22;62328;51.19929245;4.42130175;2023-03-25T05:47:11;9.40;99.90
8780;DHT22;62328;51.19929245;4.42130175;2023-03-25T05:49:38;9.40;99.90
8780;DHT22;62328;51.19929245;4.42130175;2023-03-25T05:52:07;9.40;99.90
8780;DHT22;62328;51.19929245;4.42130175;2023-03-25T05:54:36;9.50;99.90
8780;DHT22;62328;51.19929245;4.42130175;2023-03-25T05:57:03;9.50;99.90
8780;DHT22;62328;51.19929245;4.42130175;2023-03-25T05:59:31;9.50;99.90
8780;DHT22;62328;51.19929245;4.42130175;2023-03-25T06:01:58;9.50;99.90
8780;DHT22;62328;51.19929245;4.42130175;2023-03-25T06:04:24;9.40;99.90
8780;DHT22;62328;51.19929245;4.42130175;2023-03-25T06:06:51;9.50;99.90
8780;DHT22;62328;51.19929245;4.42130175;2023-03-25T06:09:19;9.60;99.90
8780;DHT22;62328;51.19929245;4.42130175;2023-03-25T06:11:46;9.60;99.90
8780;DHT22;62328;51.19929245;4.42130175;2023-03-25T06:14:17;9.60;99.90
8780;DHT22;62328;51.19929245;4.42130175;2023-03-25T06:16:45;9.50;99.90
8780;DHT22;62328;51.19929245;4.42130175;2023-03-25T06:19:14;9.50;99.90
8780;DHT22;62328;51.19929245;4.42130175;2023-03-25T06:21:43;9.60;99.90
8780;DHT22;62328;51.19929245;4.42130175;2023-03-25T06:24:14;9.60;99.90
8780;DHT22;62328;51.19929245;4.42130175;2023-03-25T06:26:42;9.70;99.90
8780;DHT22;62328;51.19929245;4.42130175;2023-03-25T06:29:10;9.60;99.90
8780;DHT22;62328;51.19929245;4.42130175;2023-03-25T06:31:37;9.70;99.90
8780;DHT22;62328;51.19929245;4.42130175;2023-03-25T06:34:04;9.60;99.90
8780;DHT22;62328;51.19929245;4.42130175;2023-03-25T06:36:30;9.60;99.90
8780;DHT22;62328;51.19929245;4.42130175;2023-03-25T06:38:59;9.70;99.90
8780;DHT22;62328;51.19929245;4.42130175;2023-03-25T06:41:26;9.80;99.90
8780;DHT22;62328;51.19929245;4.42130175;2023-03-25T06:43:54;9.80;99.90
8780;DHT22;62328;51.19929245;4.42130175;2023-03-25T06:46:22;9.80;99.90
8780;DHT22;62328;51.19929245;4.42130175;2023-03-25T06:48:48;9.90;99.90
8780;DHT22;62328;51.19929245;4.42130175;2023-03-25T06:51:16;9.90;99.90
8780;DHT22;62328;51.19929245;4.42130175;2023-03-25T06:53:42;9.90;99.90
8780;DHT22;62328;51.19929245;4.42130175;2023-03-25T06:56:09;9.90;99.90
8780;DHT22;62328;51.19929245;4.42130175;2023-03-25T06:58:36;9.90;99.90
8780;DHT22;62328;51.19929245;4.42130175;2023-03-25T07:01:06;9.90;99.90
8780;DHT22;62328;51.19929245;4.42130175;2023-03-25T07:03:34;10.00;99.90
8780;DHT22;62328;51.19929245;4.42130175;2023-03-25T07:06:02;10.00;99.90
8780;DHT22;62328;51.19929245;4.42130175;2023-03-25T07:08:30;10.00;99.90
8780;DHT22;62328;51.19929245;4.42130175;2023-03-25T07:11:00;10.00;99.90
8780;DHT22;62328;51.19929245;4.42130175;2023-03-25T07:13:26;10.00;99.90
8780;DHT22;62328;51.19929245;4.42130175;2023-03-25T07:15:55;10.00;99.90
8780;DHT22;62328;51.19929245;4.42130175;2023-03-25T07:18:24;10.10;99.90
8780;DHT22;62328;51.19929245;4.42130175;2023-03-25T07:20:51;10.10;99.90
8780;DHT22;62328;51.19929245;4.42130175;2023-03-25T07:23:18;10.20;99.90
8780;DHT22;62328;51.19929245;4.42130175;2023-03-25T07:25:45;10.20;99.90
8780;DHT22;62328;51.19929245;4.42130175;2023-03-25T07:28:12;10.20;99.90
8780;DHT22;62328;51.19929245;4.42130175;2023-03-25T07:30:39;10.10;99.90
8780;DHT22;62328;51.19929245;4.42130175;2023-03-25T07:33:06;10.20;99.90
8780;DHT22;62328;51.19929245;4.42130175;2023-03-25T07:35:34;10.20;99.90
8780;DHT22;62328;51.19929245;4.42130175;2023-03-25T07:38:01;10.20;99.90
8780;DHT22;62328;51.19929245;4.42130175;2023-03-25T07:40:28;10.20;99.90
8780;DHT22;62328;51.19929245;4.42130175;2023-03-25T07:42:55;10.20;99.90
8780;DHT22;62328;51.19929245;4.42130175;2023-03-25T07:45:22;10.20;99.90
8780;DHT22;62328;51.19929245;4.42130175;2023-03-25T07:47:49;10.20;99.90
8780;DHT22;62328;51.19929245;4.42130175;2023-03-25T07:50:18;10.20;99.90
8780;DHT22;62328;51.19929245;4.42130175;2023-03-25T07:52:46;10.20;99.90
8780;DHT22;62328;51.19929245;4.42130175;2023-03-25T07:55:14;10.20;99.90
8780;DHT22;62328;51.19929245;4.42130175;2023-03-25T07:57:41;10.20;99.90
8780;DHT22;62328;51.19929245;4.42130175;2023-03-25T08:00:10;10.20;99.90
8780;DHT22;62328;51.19929245;4.42130175;2023-03-25T08:02:37;10.30;99.90
8780;DHT22;62328;51.19929245;4.42130175;2023-03-25T08:05:05;10.30;99.90
8780;DHT22;62328;51.19929245;4.42130175;2023-03-25T08:07:32;10.30;99.90
8780;DHT22;62328;51.19929245;4.42130175;2023-03-25T08:10:00;10.50;99.90
8780;DHT22;62328;51.19929245;4.42130175;2023-03-25T08:12:27;10.50;99.90
8780;DHT22;62328;51.19929245;4.42130175;2023-03-25T08:14:54;10.50;99.90
8780;DHT22;62328;51.19929245;4.42130175;2023-03-25T08:17:22;10.50;99.90
8780;DHT22;62328;51.19929245;4.42130175;2023-03-25T08:19:48;10.50;99.90
8780;DHT22;62328;51.19929245;4.42130175;2023-03-25T08:22:15;10.60;99.90
8780;DHT22;62328;51.19929245;4.42130175;2023-03-25T08:24:42;10.50;99.90
8780;DHT22;62328;51.19929245;4.42130175;2023-03-25T08:27:11;10.60;99.90
8780;DHT22;62328;51.19929245;4.42130175;2023-03-25T08:29:38;10.70;99.90
8780;DHT22;62328;51.19929245;4.42130175;2023-03-25T08:32:05;10.70;99.90
8780;DHT22;62328;51.19929245;4.42130175;2023-03-25T08:34:32;10.70;99.90
8780;DHT22;62328;51.19929245;4.42130175;2023-03-25T08:37:04;10.80;99.90
8780;DHT22;62328;51.19929245;4.42130175;2023-03-25T08:39:32;10.80;99.90
8780;DHT22;62328;51.19929245;4.42130175;2023-03-25T08:42:04;10.70;99.90
8780;DHT22;62328;51.19929245;4.42130175;2023-03-25T08:44:33;10.60;99.90
8780;DHT22;62328;51.19929245;4.42130175;2023-03-25T08:47:00;10.60;99.90
8780;DHT22;62328;51.19929245;4.42130175;2023-03-25T08:49:27;10.60;99.90
8780;DHT22;62328;51.19929245;4.42130175;2023-03-25T08:51:54;10.40;99.90
8780;DHT22;62328;51.19929245;4.42130175;2023-03-25T08:54:22;10.50;99.90
8780;DHT22;62328;51.19929245;4.42130175;2023-03-25T08:56:49;10.30;99.90
8780;DHT22;62328;51.19929245;4.42130175;2023-03-25T08:59:16;10.50;99.90
8780;DHT22;62328;51.19929245;4.42130175;2023-03-25T09:01:44;10.60;99.90
8780;DHT22;62328;51.19929245;4.42130175;2023-03-25T09:04:11;10.70;99.90
8780;DHT22;62328;51.19929245;4.42130175;2023-03-25T09:06:38;10.70;99.90
8780;DHT22;62328;51.19929245;4.42130175;2023-03-25T09:09:06;10.80;99.90
8780;DHT22;62328;51.19929245;4.42130175;2023-03-25T09:11:34;10.80;99.90
8780;DHT22;62328;51.19929245;4.42130175;2023-03-25T09:14:01;10.80;99.90
8780;DHT22;62328;51.19929245;4.42130175;2023-03-25T09:16:28;11.00;99.90
8780;DHT22;62328;51.19929245;4.42130175;2023-03-25T09:18:56;11.00;99.90
8780;DHT22;62328;51.19929245;4.42130175;2023-03-25T09:21:23;11.00;99.90
8780;DHT22;62328;51.19929245;4.42130175;2023-03-25T09:23:51;11.10;99.90
8780;DHT22;62328;51.19929245;4.42130175;2023-03-25T09:26:18;11.20;99.90
8780;DHT22;62328;51.19929245;4.42130175;2023-03-25T09:28:45;11.20;99.90
8780;DHT22;62328;51.19929245;4.42130175;2023-03-25T09:31:12;11.30;99.90
8780;DHT22;62328;51.19929245;4.42130175;2023-03-25T09:33:40;11.30;99.90
8780;DHT22;62328;51.19929245;4.42130175;2023-03-25T09:36:08;11.40;99.90
8780;DHT22;62328;51.19929245;4.42130175;2023-03-25T09:38:36;11.50;99.90
8780;DHT22;62328;51.19929245;4.42130175;2023-03-25T09:41:15;11.70;99.90
8780;DHT22;62328;51.19929245;4.42130175;2023-03-25T09:43:53;11.80;99.90
8780;DHT22;62328;51.19929245;4.42130175;2023-03-25T09:46:22;12.00;99.90
8780;DHT22;62328;51.19929245;4.42130175;2023-03-25T09:48:50;12.10;99.90
8780;DHT22;62328;51.19929245;4.42130175;2023-03-25T09:51:22;12.20;99.90
8780;DHT22;62328;51.19929245;4.42130175;2023-03-25T09:53:54;12.20;99.90
8780;DHT22;62328;51.19929245;4.42130175;2023-03-25T09:56:30;12.30;99.90
8780;DHT22;62328;51.19929245;4.42130175;2023-03-25T09:59:04;12.40;99.90
8780;DHT22;62328;51.19929245;4.42130175;2023-03-25T10:01:40;12.40;99.90
8780;DHT22;62328;51.19929245;4.42130175;2023-03-25T10:07:28;13.00;99.90
8780;DHT22;62328;51.19929245;4.42130175;2023-03-25T10:10:04;13.20;99.90
8780;DHT22;62328;51.19929245;4.42130175;2023-03-25T10:12:39;13.10;99.90
8780;DHT22;62328;51.19929245;4.42130175;2023-03-25T10:15:16;13.00;99.90
8780;DHT22;62328;51.19929245;4.42130175;2023-03-25T10:17:56;13.10;99.90
8780;DHT22;62328;51.19929245;4.42130175;2023-03-25T10:20:37;13.10;99.90
8780;DHT22;62328;51.19929245;4.42130175;2023-03-25T10:23:13;13.30;99.90
8780;DHT22;62328;51.19929245;4.42130175;2023-03-25T10:25:44;13.10;99.90
8780;DHT22;62328;51.19929245;4.42130175;2023-03-25T10:28:17;12.90;99.90
8780;DHT22;62328;51.19929245;4.42130175;2023-03-25T10:30:49;12.80;99.90
8780;DHT22;62328;51.19929245;4.42130175;2023-03-25T10:33:23;12.70;99.90
8780;DHT22;62328;51.19929245;4.42130175;2023-03-25T10:35:53;12.50;99.90
8780;DHT22;62328;51.19929245;4.42130175;2023-03-25T10:38:24;12.30;99.90
8780;DHT22;62328;51.19929245;4.42130175;2023-03-25T10:41:05;12.10;99.90
8780;DHT22;62328;51.19929245;4.42130175;2023-03-25T10:43:39;11.90;99.90
8780;DHT22;62328;51.19929245;4.42130175;2023-03-25T10:46:13;11.80;99.90
8780;DHT22;62328;51.19929245;4.42130175;2023-03-25T10:48:43;11.90;99.90
8780;DHT22;62328;51.19929245;4.42130175;2023-03-25T10:51:12;11.90;99.90
8780;DHT22;62328;51.19929245;4.42130175;2023-03-25T10:53:45;11.90;99.90
8780;DHT22;62328;51.19929245;4.42130175;2023-03-25T10:56:15;12.00;99.90
8780;DHT22;62328;51.19929245;4.42130175;2023-03-25T10:58:45;11.90;99.90
8780;DHT22;62328;51.19929245;4.42130175;2023-03-25T11:01:15;11.80;99.90
8780;DHT22;62328;51.19929245;4.42130175;2023-03-25T11:03:44;11.60;99.90
8780;DHT22;62328;51.19929245;4.42130175;2023-03-25T11:06:21;11.50;99.90
8780;DHT22;62328;51.19929245;4.42130175;2023-03-25T11:09:00;11.30;99.90
8780;DHT22;62328;51.19929245;4.42130175;2023-03-25T11:11:36;11.30;99.90
8780;DHT22;62328;51.19929245;4.42130175;2023-03-25T11:14:03;11.30;99.90
8780;DHT22;62328;51.19929245;4.42130175;2023-03-25T11:16:32;11.50;99.90
8780;DHT22;62328;51.19929245;4.42130175;2023-03-25T11:19:00;11.80;99.90
8780;DHT22;62328;51.19929245;4.42130175;2023-03-25T11:21:31;12.20;99.90
8780;DHT22;62328;51.19929245;4.42130175;2023-03-25T11:24:01;12.40;99.90
8780;DHT22;62328;51.19929245;4.42130175;2023-03-25T11:26:36;12.40;99.90
8780;DHT22;62328;51.19929245;4.42130175;2023-03-25T11:29:05;12.20;99.90
8780;DHT22;62328;51.19929245;4.42130175;2023-03-25T11:31:33;12.20;99.90
8780;DHT22;62328;51.19929245;4.42130175;2023-03-25T11:34:04;12.10;99.90
8780;DHT22;62328;51.19929245;4.42130175;2023-03-25T11:36:34;12.00;99.90
8780;DHT22;62328;51.19929245;4.42130175;2023-03-25T11:39:14;12.00;99.90
8780;DHT22;62328;51.19929245;4.42130175;2023-03-25T11:41:42;12.30;99.90
8780;DHT22;62328;51.19929245;4.42130175;2023-03-25T11:44:20;12.50;99.90
8780;DHT22;62328;51.19929245;4.42130175;2023-03-25T11:46:49;12.50;99.90
8780;DHT22;62328;51.19929245;4.42130175;2023-03-25T11:49:19;12.40;99.90
8780;DHT22;62328;51.19929245;4.42130175;2023-03-25T11:51:47;12.60;99.90
8780;DHT22;62328;51.19929245;4.42130175;2023-03-25T11:54:17;12.60;99.90
8780;DHT22;62328;51.19929245;4.42130175;2023-03-25T11:56:47;12.50;99.90
8780;DHT22;62328;51.19929245;4.42130175;2023-03-25T11:59:20;12.60;99.90
8780;DHT22;62328;51.19929245;4.42130175;2023-03-25T12:01:48;12.60;99.90
8780;DHT22;62328;51.19929245;4.42130175;2023-03-25T12:04:18;12.60;99.90
8780;DHT22;62328;51.19929245;4.42130175;2023-03-25T12:06:53;12.80;99.90
8780;DHT22;62328;51.19929245;4.42130175;2023-03-25T12:09:24;13.00;99.90
8780;DHT22;62328;51.19929245;4.42130175;2023-03-25T12:12:02;13.00;99.90
8780;DHT22;62328;51.19929245;4.42130175;2023-03-25T12:14:46;12.80;99.90
8780;DHT22;62328;51.19929245;4.42130175;2023-03-25T12:17:25;12.50;99.90
8780;DHT22;62328;51.19929245;4.42130175;2023-03-25T12:20:02;12.30;99.90
8780;DHT22;62328;51.19929245;4.42130175;2023-03-25T12:22:47;12.10;99.90
8780;DHT22;62328;51.19929245;4.42130175;2023-03-25T12:25:24;11.90;99.90
8780;DHT22;62328;51.19929245;4.42130175;2023-03-25T12:30:54;12.10;99.90
8780;DHT22;62328;51.19929245;4.42130175;2023-03-25T12:33:32;12.40;99.90
8780;DHT22;62328;51.19929245;4.42130175;2023-03-25T12:36:19;12.70;99.90
8780;DHT22;62328;51.19929245;4.42130175;2023-03-25T12:38:56;12.90;99.90
8780;DHT22;62328;51.19929245;4.42130175;2023-03-25T12:41:31;13.00;99.90
8780;DHT22;62328;51.19929245;4.42130175;2023-03-25T12:44:03;13.20;99.90
8780;DHT22;62328;51.19929245;4.42130175;2023-03-25T12:49:55;13.30;99.90
8780;DHT22;62328;51.19929245;4.42130175;2023-03-25T12:52:29;13.50;99.90
8780;DHT22;62328;51.19929245;4.42130175;2023-03-25T12:55:18;13.80;99.90
8780;DHT22;62328;51.19929245;4.42130175;2023-03-25T12:58:02;13.90;99.90
8780;DHT22;62328;51.19929245;4.42130175;2023-03-25T13:00:40;13.90;99.90
8780;DHT22;62328;51.19929245;4.42130175;2023-03-25T13:03:27;13.70;99.90
8780;DHT22;62328;51.19929245;4.42130175;2023-03-25T13:06:01;13.50;99.90
8780;DHT22;62328;51.19929245;4.42130175;2023-03-25T13:08:33;13.20;99.90
8780;DHT22;62328;51.19929245;4.42130175;2023-03-25T13:11:06;13.10;99.90
8780;DHT22;62328;51.19929245;4.42130175;2023-03-25T13:13:36;13.10;99.90
8780;DHT22;62328;51.19929245;4.42130175;2023-03-25T13:16:06;13.20;99.90
8780;DHT22;62328;51.19929245;4.42130175;2023-03-25T13:18:37;13.10;99.90
8780;DHT22;62328;51.19929245;4.42130175;2023-03-25T13:21:09;13.00;99.90
8780;DHT22;62328;51.19929245;4.42130175;2023-03-25T13:23:38;13.00;99.90
8780;DHT22;62328;51.19929245;4.42130175;2023-03-25T13:26:08;12.90;99.90
8780;DHT22;62328;51.19929245;4.42130175;2023-03-25T13:28:40;13.10;99.90
8780;DHT22;62328;51.19929245;4.42130175;2023-03-25T13:31:14;13.30;99.90
8780;DHT22;62328;51.19929245;4.42130175;2023-03-25T13:33:46;13.30;99.90
8780;DHT22;62328;51.19929245;4.42130175;2023-03-25T13:36:21;13.40;99.90
8780;DHT22;62328;51.19929245;4.42130175;2023-03-25T13:38:53;13.40;99.90
8780;DHT22;62328;51.19929245;4.42130175;2023-03-25T13:41:25;13.50;99.90
8780;DHT22;62328;51.19929245;4.42130175;2023-03-25T13:44:03;13.80;99.90
8780;DHT22;62328;51.19929245;4.42130175;2023-03-25T13:46:35;13.70;99.90
8780;DHT22;62328;51.19929245;4.42130175;2023-03-25T13:49:08;13.60;99.90
8780;DHT22;62328;51.19929245;4.42130175;2023-03-25T13:51:37;13.60;99.90
8780;DHT22;62328;51.19929245;4.42130175;2023-03-25T13:54:08;13.80;99.90
8780;DHT22;62328;51.19929245;4.42130175;2023-03-25T13:56:56;14.00;99.90
8780;DHT22;62328;51.19929245;4.42130175;2023-03-25T13:59:51;14.10;99.90
8780;DHT22;62328;51.19929245;4.42130175;2023-03-25T14:02:39;14.20;99.90
8780;DHT22;62328;51.19929245;4.42130175;2023-03-25T14:05:31;14.30;99.90
8780;DHT22;62328;51.19929245;4.42130175;2023-03-25T14:08:22;14.50;99.90
8780;DHT22;62328;51.19929245;4.42130175;2023-03-25T14:10:54;14.60;99.90
8780;DHT22;62328;51.19929245;4.42130175;2023-03-25T14:13:27;14.70;99.90